This is the latest recevied weather packets stored in our database for station/object DC1NF-7. If no packets are shown the sender has not sent any weather packets the latest 10 day(s).
| Time | Temp. | Humidity | Pressure | Rain* | Wind** | Luminosity | Snow |
|---|---|---|---|---|---|---|---|
| 1777806376 | 24.44° C | 33% | 1014.7 hPa | 0 mm | - | 660 W/m² | - |
| 1777805769 | 24.44° C | 34% | 1014.8 hPa | 0 mm | - | 691 W/m² | - |
| 1777805170 | 23.89° C | 35% | 1015 hPa | 0 mm | - | 539 W/m² | - |
| 1777804563 | 23.89° C | 33% | 1015 hPa | 0 mm | - | 766 W/m² | - |
| 1777803958 | 23.89° C | 31% | 1015.1 hPa | 0 mm | - | 881 W/m² | - |
| 1777803357 | 23.89° C | 31% | 1015.1 hPa | 0 mm | - | 757 W/m² | - |
| 1777802749 | 23.33° C | 33% | 1015.3 hPa | 0 mm | - | 617 W/m² | - |
| 1777802148 | 23.33° C | 36% | 1015.5 hPa | 0 mm | - | 704 W/m² | - |
| 1777801541 | 23.33° C | 35% | 1015.6 hPa | 0 mm | - | 720 W/m² | - |
| 1777800940 | 23.33° C | 34% | 1015.8 hPa | 0 mm | - | 817 W/m² | - |
| 1777800342 | 22.22° C | 38% | 1015.9 hPa | 0 mm | - | 845 W/m² | - |
| 1777799732 | 21.11° C | 41% | 1016 hPa | 0 mm | - | 717 W/m² | - |
| 1777799131 | 20° C | 46% | 1016.1 hPa | 0 mm | - | 589 W/m² | - |
| 1777798526 | 19.44° C | 46% | 1016.1 hPa | 0 mm | - | 604 W/m² | - |
| 1777797922 | 19.44° C | 46% | 1016.1 hPa | 0 mm | - | 601 W/m² | - |
| 1777797316 | 19.44° C | 46% | 1016.2 hPa | 0 mm | - | 557 W/m² | - |
| 1777796773 | 18.89° C | 45% | 1016.3 hPa | 0 mm | - | 515 W/m² | - |
| 1777796170 | 18.33° C | 46% | 1016.3 hPa | 0 mm | - | 498 W/m² | - |
| 1777795566 | 18.33° C | 47% | 1016.1 hPa | 0 mm | - | 414 W/m² | - |
| 1777794963 | 18.33° C | 47% | 1016.2 hPa | 0 mm | - | 500 W/m² | - |
| 1777794360 | 18.33° C | 50% | 1016.1 hPa | 0 mm | - | 475 W/m² | - |
| 1777793756 | 17.78° C | 48% | 1016.1 hPa | 0 mm | - | 489 W/m² | - |
| 1777793155 | 16.67° C | 55% | 1016 hPa | 0 mm | - | 474 W/m² | - |
| 1777792548 | 15.56° C | 58% | 1016 hPa | 0 mm | - | 208 W/m² | - |
| 1777791944 | 15.56° C | 59% | 1016 hPa | 0 mm | - | 195 W/m² | - |
* Rain latest hour (hover to see other rain measurements)
** Current wind speed in m/s (hover to see current wind gust speed)